Time;durP1;ratioP1;P1;durP2;ratioP2;P2;SDS_P1;SDS_P2;PMS_P1;PMS_P2;Temp;Humidity;BMP_temperature;BMP_pressure;BME280_temperature;BME280_humidity;BME280_pressure;Samples;Min_cycle;Max_cycle;Signal;HPM_P1;HPM_P2
2023/10/28 00:00:50;;;;;;;;;;;;;;;8.72;100.00;99428.41;5072606;28;20016;-71
2023/10/28 00:03:16;;;;;;;;;;;;;;;8.76;100.00;99430.03;5089684;28;19916;-72
2023/10/28 00:05:41;;;;;;;;;;;;;;;8.76;100.00;99432.66;5056847;28;19920;-71
2023/10/28 00:08:07;;;;;;;;;;;;;;;8.75;100.00;99433.53;5057582;28;19963;-71
2023/10/28 00:10:34;;;;;;;;;;;;;;;8.78;100.00;99436.94;5072493;28;20405;-71
2023/10/28 00:12:59;;;;;;;;;;;;;;;8.80;100.00;99432.53;5077167;28;19916;-72
2023/10/28 00:15:27;;;;;;;;;;;;;;;8.84;100.00;99435.91;5078230;28;19919;-71
2023/10/28 00:17:53;;;;;;;;;;;;;;;8.83;100.00;99439.41;5077883;28;19912;-73
2023/10/28 00:20:18;;;;;;;;;;;;;;;8.98;100.00;99448.63;5077068;28;19973;-70
2023/10/28 00:22:44;;;;;;;;;;;;;;;8.87;100.00;99435.84;5076480;28;19916;-71
2023/10/28 00:25:11;;;;;;;;;;;;;;;8.90;100.00;99440.13;5061044;28;20475;-71
2023/10/28 00:27:36;;;;;;;;;;;;;;;8.96;100.00;99442.56;5061426;28;19942;-71
2023/10/28 00:30:01;;;;;;;;;;;;;;;9.02;100.00;99445.88;5077624;28;20007;-72
2023/10/28 00:32:27;;;;;;;;;;;;;;;9.09;100.00;99440.47;5060502;28;19962;-72
2023/10/28 00:34:52;;;;;;;;;;;;;;;9.03;100.00;99436.25;5076678;28;19919;-70
2023/10/28 00:37:18;;;;;;;;;;;;;;;9.05;100.00;99447.53;5077570;28;19982;-70
2023/10/28 00:39:43;;;;;;;;;;;;;;;9.09;100.00;99441.31;5076433;28;19924;-70
2023/10/28 00:42:13;;;;;;;;;;;;;;;9.28;100.00;99440.78;5077921;28;19912;-70
2023/10/28 00:44:40;;;;;;;;;;;;;;;9.20;100.00;99443.63;5076816;28;19927;-70
2023/10/28 00:47:06;;;;;;;;;;;;;;;9.23;100.00;99445.31;5066736;28;19920;-69
2023/10/28 00:49:31;;;;;;;;;;;;;;;9.27;100.00;99442.56;5073866;28;19924;-70
2023/10/28 00:51:58;;;;;;;;;;;;;;;9.39;100.00;99448.34;5095866;28;19916;-70
2023/10/28 00:54:24;;;;;;;;;;;;;;;9.31;100.00;99449.41;5076323;28;20351;-70
2023/10/28 00:56:49;;;;;;;;;;;;;;;9.39;100.00;99450.94;5077941;28;19916;-70
2023/10/28 00:59:15;;;;;;;;;;;;;;;9.39;100.00;99445.72;5046728;28;19930;-70
2023/10/28 01:01:40;;;;;;;;;;;;;;;9.40;100.00;99444.81;5060852;28;19963;-71
2023/10/28 01:04:06;;;;;;;;;;;;;;;9.29;100.00;99439.91;5068699;28;20015;-71
2023/10/28 01:06:31;;;;;;;;;;;;;;;9.41;100.00;99441.28;5076573;28;19920;-72
2023/10/28 01:08:57;;;;;;;;;;;;;;;9.33;100.00;99444.97;5076948;28;19920;-72
2023/10/28 01:11:22;;;;;;;;;;;;;;;9.39;100.00;99440.50;5076402;28;19920;-72
2023/10/28 01:13:47;;;;;;;;;;;;;;;9.39;100.00;99443.09;5071489;28;19924;-72
2023/10/28 01:16:13;;;;;;;;;;;;;;;9.39;100.00;99448.34;5077216;28;20451;-71
2023/10/28 01:18:38;;;;;;;;;;;;;;;9.42;100.00;99448.25;5076837;28;19963;-72
2023/10/28 01:21:11;;;;;;;;;;;;;;;9.47;100.00;99434.13;5076319;28;19922;-72
2023/10/28 01:23:36;;;;;;;;;;;;;;;9.56;100.00;99437.38;5070468;28;20387;-72
2023/10/28 01:26:02;;;;;;;;;;;;;;;9.44;100.00;99442.06;5060299;28;19920;-71
2023/10/28 01:28:29;;;;;;;;;;;;;;;9.42;100.00;99437.78;5076473;28;20298;-71
2023/10/28 01:30:55;;;;;;;;;;;;;;;9.42;100.00;99433.41;5076920;28;20140;-71
2023/10/28 01:33:21;;;;;;;;;;;;;;;9.40;100.00;99427.38;5073905;28;20329;-72
2023/10/28 01:35:46;;;;;;;;;;;;;;;9.52;100.00;99428.75;5075728;28;20359;-72
2023/10/28 01:38:13;;;;;;;;;;;;;;;9.48;100.00;99437.59;5075880;28;20002;-72
2023/10/28 01:40:38;;;;;;;;;;;;;;;9.47;100.00;99435.91;5076877;28;20054;-72
2023/10/28 01:43:04;;;;;;;;;;;;;;;9.49;100.00;99441.94;5073862;28;19995;-71
2023/10/28 01:45:30;;;;;;;;;;;;;;;9.53;100.00;99438.31;5051538;28;20823;-72
2023/10/28 01:47:55;;;;;;;;;;;;;;;9.50;100.00;99433.19;5076070;28;19958;-71
2023/10/28 01:50:21;;;;;;;;;;;;;;;9.54;100.00;99433.03;5076161;28;19916;-71
2023/10/28 01:52:46;;;;;;;;;;;;;;;9.51;100.00;99438.38;5073258;28;19918;-71
2023/10/28 01:55:12;;;;;;;;;;;;;;;9.51;100.00;99435.75;5047838;28;20014;-71
2023/10/28 01:57:37;;;;;;;;;;;;;;;9.52;100.00;99441.81;5056757;28;19923;-72
2023/10/28 02:00:12;;;;;;;;;;;;;;;9.45;100.00;99438.56;5073753;28;20341;-72
2023/10/28 02:02:38;;;;;;;;;;;;;;;9.52;100.00;99437.47;5067252;28;19956;-71
2023/10/28 02:05:03;;;;;;;;;;;;;;;9.46;100.00;99440.25;5071658;28;19971;-72
2023/10/28 02:07:29;;;;;;;;;;;;;;;9.50;100.00;99435.81;5075495;28;19920;-72
2023/10/28 02:09:54;;;;;;;;;;;;;;;9.59;100.00;99432.91;5068516;28;19916;-72
2023/10/28 02:12:19;;;;;;;;;;;;;;;9.52;100.00;99428.75;5058401;28;19990;-73
2023/10/28 02:14:46;;;;;;;;;;;;;;;9.50;100.00;99433.19;5054125;28;20300;-72
2023/10/28 02:17:11;;;;;;;;;;;;;;;9.54;100.00;99432.19;5059119;28;20019;-74
2023/10/28 02:19:36;;;;;;;;;;;;;;;9.57;100.00;99434.72;5075512;28;20012;-72
2023/10/28 02:22:02;;;;;;;;;;;;;;;9.63;100.00;99436.28;5059617;28;19948;-72
2023/10/28 02:24:28;;;;;;;;;;;;;;;9.63;100.00;99431.91;5057139;28;19916;-72
2023/10/28 02:26:55;;;;;;;;;;;;;;;9.59;100.00;99438.13;5075142;28;20444;-71
2023/10/28 02:29:21;;;;;;;;;;;;;;;9.56;100.00;99435.59;5058893;28;20276;-72
2023/10/28 02:31:48;;;;;;;;;;;;;;;9.66;100.00;99431.81;5059749;28;19916;-71
2023/10/28 02:34:13;;;;;;;;;;;;;;;9.54;100.00;99429.59;5057868;28;19917;-72
2023/10/28 02:36:42;;;;;;;;;;;;;;;9.53;100.00;99441.78;5073023;28;19931;-71
2023/10/28 02:39:07;;;;;;;;;;;;;;;9.67;100.00;99438.75;5059281;28;19927;-73
2023/10/28 02:41:33;;;;;;;;;;;;;;;9.55;100.00;99431.28;5055220;28;19924;-72
2023/10/28 02:43:58;;;;;;;;;;;;;;;9.45;100.00;99427.22;5049447;28;20313;-71
2023/10/28 02:46:24;;;;;;;;;;;;;;;9.46;100.00;99429.78;5059214;28;19924;-72
2023/10/28 02:48:51;;;;;;;;;;;;;;;9.44;100.00;99434.22;5075510;28;20286;-73
2023/10/28 02:51:17;;;;;;;;;;;;;;;9.51;100.00;99427.91;5075075;28;19916;-71
2023/10/28 02:53:43;;;;;;;;;;;;;;;9.44;100.00;99431.59;5074267;28;19917;-71
2023/10/28 02:56:08;;;;;;;;;;;;;;;9.45;100.00;99435.06;5074887;28;19920;-71
2023/10/28 02:58:34;;;;;;;;;;;;;;;9.40;100.00;99435.22;5075449;28;19999;-72
2023/10/28 03:01:25;;;;;;;;;;;;;;;9.39;100.00;99443.94;5093772;28;19969;-71
2023/10/28 03:03:51;;;;;;;;;;;;;;;9.45;100.00;99442.91;5052703;28;19956;-71
2023/10/28 03:06:16;;;;;;;;;;;;;;;9.29;100.00;99443.34;5038450;28;19970;-72
2023/10/28 03:08:42;;;;;;;;;;;;;;;9.40;100.00;99444.81;5038642;28;20782;-72
2023/10/28 03:11:07;;;;;;;;;;;;;;;9.32;100.00;99448.53;5038661;28;19916;-71
2023/10/28 03:13:32;;;;;;;;;;;;;;;9.44;100.00;99454.25;5046673;28;19927;-71
2023/10/28 03:15:58;;;;;;;;;;;;;;;9.49;100.00;99444.53;5072838;28;19981;-71
2023/10/28 03:18:23;;;;;;;;;;;;;;;9.38;100.00;99451.84;5051754;28;19923;-68
2023/10/28 03:20:49;;;;;;;;;;;;;;;9.36;100.00;99444.03;5057909;28;20015;-69
2023/10/28 03:23:14;;;;;;;;;;;;;;;9.54;100.00;99438.28;5058700;28;19916;-69
2023/10/28 03:25:40;;;;;;;;;;;;;;;9.45;100.00;99435.06;5056961;28;19924;-70
2023/10/28 03:28:05;;;;;;;;;;;;;;;9.42;100.00;99437.78;5045227;28;19924;-70
2023/10/28 03:30:31;;;;;;;;;;;;;;;9.34;100.00;99448.47;5038465;28;20023;-70
2023/10/28 03:32:57;;;;;;;;;;;;;;;9.40;100.00;99443.06;5054740;28;19964;-69
2023/10/28 03:35:22;;;;;;;;;;;;;;;9.27;100.00;99445.16;5066059;28;19919;-70
2023/10/28 03:37:47;;;;;;;;;;;;;;;9.19;100.00;99449.75;5054805;28;20006;-70
2023/10/28 03:40:13;;;;;;;;;;;;;;;9.29;100.00;99448.59;5058405;28;19926;-70
2023/10/28 03:42:38;;;;;;;;;;;;;;;9.18;100.00;99448.06;5074338;28;20268;-70
2023/10/28 03:45:07;;;;;;;;;;;;;;;9.24;100.00;99444.38;5057669;28;19925;-70
2023/10/28 03:47:38;;;;;;;;;;;;;;;9.33;100.00;99452.81;5059112;28;19917;-70
2023/10/28 03:50:04;;;;;;;;;;;;;;;9.34;100.00;99457.16;5058894;28;20321;-69
2023/10/28 03:52:30;;;;;;;;;;;;;;;9.16;100.00;99445.47;5074512;28;19913;-70
2023/10/28 03:54:55;;;;;;;;;;;;;;;9.07;100.00;99448.34;5054201;28;20333;-69
2023/10/28 03:57:21;;;;;;;;;;;;;;;9.16;100.00;99452.47;5044009;28;20368;-69
2023/10/28 03:59:48;;;;;;;;;;;;;;;9.08;100.00;99443.97;5035445;28;19925;-70
2023/10/28 04:02:13;;;;;;;;;;;;;;;9.11;100.00;99443.91;5050426;28;20272;-69
2023/10/28 04:04:39;;;;;;;;;;;;;;;9.05;100.00;99444.06;5039137;28;19928;-69
2023/10/28 04:07:04;;;;;;;;;;;;;;;9.01;100.00;99443.31;5070787;28;20434;-69
2023/10/28 04:09:29;;;;;;;;;;;;;;;8.97;100.00;99441.66;5072105;28;19920;-69
2023/10/28 04:11:55;;;;;;;;;;;;;;;8.93;100.00;99434.81;5069413;28;19923;-70
2023/10/28 04:14:20;;;;;;;;;;;;;;;8.92;100.00;99433.97;5069831;28;19924;-69
2023/10/28 04:16:45;;;;;;;;;;;;;;;8.99;100.00;99440.72;5050474;28;19960;-70
2023/10/28 04:19:11;;;;;;;;;;;;;;;9.10;100.00;99436.97;5051634;28;19966;-70
2023/10/28 04:21:37;;;;;;;;;;;;;;;9.06;100.00;99441.41;5048576;28;19967;-69
2023/10/28 04:24:03;;;;;;;;;;;;;;;9.07;100.00;99423.97;5054736;28;20339;-69
2023/10/28 04:26:28;;;;;;;;;;;;;;;8.96;100.00;99434.72;5070483;28;19921;-69
2023/10/28 04:28:53;;;;;;;;;;;;;;;9.11;100.00;99433.47;5053781;28;19932;-69
2023/10/28 04:31:19;;;;;;;;;;;;;;;8.96;100.00;99429.50;5070522;28;20005;-69
2023/10/28 04:33:44;;;;;;;;;;;;;;;9.01;100.00;99427.63;5054220;28;19925;-69
2023/10/28 04:36:09;;;;;;;;;;;;;;;9.01;100.00;99425.00;5052009;28;19925;-69
2023/10/28 04:38:36;;;;;;;;;;;;;;;9.00;100.00;99421.53;5053790;28;19925;-69
2023/10/28 04:41:02;;;;;;;;;;;;;;;8.97;100.00;99423.38;5053753;28;20423;-69
2023/10/28 04:43:27;;;;;;;;;;;;;;;8.96;100.00;99424.28;5054699;28;19963;-69
2023/10/28 04:45:55;;;;;;;;;;;;;;;8.99;100.00;99421.56;5041233;28;20345;-69
2023/10/28 04:48:21;;;;;;;;;;;;;;;8.97;100.00;99421.63;5050463;28;19928;-69
2023/10/28 04:50:48;;;;;;;;;;;;;;;8.98;100.00;99415.50;5067827;28;19925;-69
2023/10/28 04:53:13;;;;;;;;;;;;;;;9.04;100.00;99421.44;5070663;28;20330;-70
2023/10/28 04:55:39;;;;;;;;;;;;;;;9.05;100.00;99420.53;5069980;28;20011;-72
2023/10/28 04:58:05;;;;;;;;;;;;;;;9.01;100.00;99425.84;5054180;28;19927;-72
2023/10/28 05:00:31;;;;;;;;;;;;;;;8.95;100.00;99420.81;5076430;28;19950;-71
2023/10/28 05:02:56;;;;;;;;;;;;;;;9.03;100.00;99415.34;5069088;28;20400;-70
2023/10/28 05:05:21;;;;;;;;;;;;;;;9.02;100.00;99414.50;5065080;28;20014;-70
2023/10/28 05:07:47;;;;;;;;;;;;;;;9.09;100.00;99412.56;5077475;28;19924;-71
2023/10/28 05:10:12;;;;;;;;;;;;;;;8.96;100.00;99412.06;5056455;28;20003;-72
2023/10/28 05:12:40;;;;;;;;;;;;;;;9.04;100.00;99401.41;5074688;28;20317;-71
2023/10/28 05:15:10;;;;;;;;;;;;;;;9.10;100.00;99410.81;5055567;28;19931;-71
2023/10/28 05:17:36;;;;;;;;;;;;;;;9.07;100.00;99409.16;5057157;28;20372;-71
2023/10/28 05:20:04;;;;;;;;;;;;;;;9.05;100.00;99408.34;5058105;28;20060;-70
2023/10/28 05:22:31;;;;;;;;;;;;;;;9.11;100.00;99407.31;5041286;28;19985;-71
2023/10/28 05:24:57;;;;;;;;;;;;;;;9.27;100.00;99413.81;5064701;28;20011;-71
2023/10/28 05:27:22;;;;;;;;;;;;;;;9.11;100.00;99412.53;5077470;28;19974;-70
2023/10/28 05:29:48;;;;;;;;;;;;;;;9.13;100.00;99406.34;5076800;28;19916;-71
2023/10/28 05:32:13;;;;;;;;;;;;;;;9.15;100.00;99414.16;5077347;28;19912;-71
2023/10/28 05:34:39;;;;;;;;;;;;;;;9.15;100.00;99415.03;5057311;28;19970;-72
2023/10/28 05:37:05;;;;;;;;;;;;;;;9.19;100.00;99410.53;5060461;28;19916;-71
2023/10/28 05:39:30;;;;;;;;;;;;;;;9.22;100.00;99407.00;5060543;28;19927;-70
2023/10/28 05:41:56;;;;;;;;;;;;;;;9.13;100.00;99408.13;5059980;28;19924;-70
2023/10/28 05:44:21;;;;;;;;;;;;;;;9.09;100.00;99412.56;5058900;28;19943;-70
2023/10/28 05:46:47;;;;;;;;;;;;;;;9.18;100.00;99408.84;5076465;28;19985;-72
2023/10/28 05:49:12;;;;;;;;;;;;;;;9.23;100.00;99412.16;5076572;28;19916;-70
2023/10/28 05:51:39;;;;;;;;;;;;;;;9.20;100.00;99422.72;5048624;28;20388;-71
2023/10/28 05:54:04;;;;;;;;;;;;;;;9.14;100.00;99412.47;5069765;28;19916;-70
2023/10/28 05:56:30;;;;;;;;;;;;;;;9.12;100.00;99420.34;5059497;28;19931;-71
2023/10/28 05:58:58;;;;;;;;;;;;;;;9.14;100.00;99425.53;5059364;28;19967;-71
2023/10/28 06:01:23;;;;;;;;;;;;;;;9.10;100.00;99421.28;5058276;28;19982;-70
2023/10/28 06:03:49;;;;;;;;;;;;;;;9.14;100.00;99428.97;5056444;28;19916;-71
2023/10/28 06:06:15;;;;;;;;;;;;;;;9.22;100.00;99428.75;5059133;28;20362;-70
2023/10/28 06:08:41;;;;;;;;;;;;;;;9.24;100.00;99429.56;5059599;28;20398;-70
2023/10/28 06:11:06;;;;;;;;;;;;;;;9.11;100.00;99430.84;5056927;28;19916;-71
2023/10/28 06:13:31;;;;;;;;;;;;;;;9.15;100.00;99433.31;5057332;28;19997;-72
2023/10/28 06:15:57;;;;;;;;;;;;;;;9.21;100.00;99439.25;5069759;28;19927;-70
2023/10/28 06:18:22;;;;;;;;;;;;;;;9.14;100.00;99431.59;5072146;28;19916;-70
2023/10/28 06:20:48;;;;;;;;;;;;;;;9.22;100.00;99436.59;5056945;28;20010;-72
2023/10/28 06:23:15;;;;;;;;;;;;;;;9.25;100.00;99436.53;5052104;28;20343;-72
2023/10/28 06:25:40;;;;;;;;;;;;;;;9.30;100.00;99437.22;5057731;28;19931;-71
2023/10/28 06:28:05;;;;;;;;;;;;;;;9.26;100.00;99435.59;5093008;28;19920;-71
2023/10/28 06:30:31;;;;;;;;;;;;;;;9.35;100.00;99448.44;5075635;28;19917;-72
2023/10/28 06:32:56;;;;;;;;;;;;;;;9.43;100.00;99448.19;5054497;28;19924;-73
2023/10/28 06:35:21;;;;;;;;;;;;;;;9.35;100.00;99447.56;5068603;28;19962;-71
2023/10/28 06:37:47;;;;;;;;;;;;;;;9.25;100.00;99446.97;5050142;28;20290;-72
2023/10/28 06:40:12;;;;;;;;;;;;;;;9.33;100.00;99452.81;5058530;28;19945;-72
2023/10/28 06:42:38;;;;;;;;;;;;;;;9.39;100.00;99445.72;5074929;28;19916;-73
2023/10/28 06:45:05;;;;;;;;;;;;;;;9.33;100.00;99457.22;5074643;28;19963;-71
2023/10/28 06:47:31;;;;;;;;;;;;;;;9.26;100.00;99453.91;5051439;28;19928;-71
2023/10/28 06:49:56;;;;;;;;;;;;;;;9.32;100.00;99447.66;5074564;28;19969;-70
2023/10/28 06:52:24;;;;;;;;;;;;;;;9.39;100.00;99443.94;5058274;28;20034;-72
2023/10/28 06:54:49;;;;;;;;;;;;;;;9.44;100.00;99451.66;5056529;28;19920;-72
2023/10/28 06:57:15;;;;;;;;;;;;;;;9.38;100.00;99444.00;5053754;28;19965;-72
2023/10/28 06:59:41;;;;;;;;;;;;;;;9.31;100.00;99440.69;5075017;28;20027;-72
2023/10/28 07:02:06;;;;;;;;;;;;;;;9.41;100.00;99446.53;5074422;28;20410;-74
2023/10/28 07:04:34;;;;;;;;;;;;;;;9.50;100.00;99439.25;5070424;28;19936;-74
2023/10/28 07:06:59;;;;;;;;;;;;;;;9.39;100.00;99435.25;5079905;28;19998;-71
2023/10/28 07:09:26;;;;;;;;;;;;;;;9.55;100.00;99436.50;5062939;28;20031;-72
2023/10/28 07:11:53;;;;;;;;;;;;;;;9.56;100.00;99440.84;5072032;28;20414;-73
2023/10/28 07:14:18;;;;;;;;;;;;;;;9.58;100.00;99451.25;5051916;28;19928;-72
2023/10/28 07:16:44;;;;;;;;;;;;;;;9.61;100.00;99444.19;5050631;28;20384;-72
2023/10/28 07:19:09;;;;;;;;;;;;;;;9.75;100.00;99448.97;5063562;28;19924;-71
2023/10/28 07:21:35;;;;;;;;;;;;;;;9.67;100.00;99444.00;5063900;28;20360;-74
2023/10/28 07:24:01;;;;;;;;;;;;;;;9.76;100.00;99449.84;5050814;28;19928;-70
2023/10/28 07:26:28;;;;;;;;;;;;;;;9.75;100.00;99455.97;5056714;28;19943;-73
2023/10/28 07:28:54;;;;;;;;;;;;;;;9.71;100.00;99460.44;5063487;28;19934;-69
2023/10/28 07:31:19;;;;;;;;;;;;;;;9.68;100.00;99466.63;5073629;28;20305;-69
2023/10/28 07:33:46;;;;;;;;;;;;;;;9.63;100.00;99459.84;5072430;28;19973;-70
2023/10/28 07:36:12;;;;;;;;;;;;;;;9.77;100.00;99464.63;5044802;28;19916;-70
2023/10/28 07:38:38;;;;;;;;;;;;;;;9.78;100.00;99461.97;5072961;28;19923;-69
2023/10/28 07:41:04;;;;;;;;;;;;;;;9.83;100.00;99467.06;5074061;28;19973;-69
2023/10/28 07:43:29;;;;;;;;;;;;;;;9.83;100.00;99464.47;5073499;28;19927;-69
2023/10/28 07:45:56;;;;;;;;;;;;;;;10.01;100.00;99461.28;5056627;28;19923;-69
2023/10/28 07:48:21;;;;;;;;;;;;;;;10.00;100.00;99461.31;5073601;28;19931;-69
2023/10/28 07:50:48;;;;;;;;;;;;;;;10.38;100.00;99467.09;5072808;28;19916;-70
2023/10/28 07:53:13;;;;;;;;;;;;;;;10.75;100.00;99477.19;5070367;28;20355;-68
2023/10/28 07:55:39;;;;;;;;;;;;;;;10.70;100.00;99473.91;5056911;28;19995;-70
2023/10/28 07:58:05;;;;;;;;;;;;;;;10.55;100.00;99475.25;5073940;28;19973;-70
2023/10/28 08:00:30;;;;;;;;;;;;;;;10.52;100.00;99477.13;5049152;28;19924;-69
2023/10/28 08:02:56;;;;;;;;;;;;;;;10.46;100.00;99480.81;5054153;28;20380;-69
2023/10/28 08:15:44;;;;;;;;;;;;;;;11.15;100.00;99497.66;5110277;23;19923;-93
2023/10/28 08:18:12;;;;;;;;;;;;;;;11.10;100.00;99492.59;5105219;28;19969;-93
2023/10/28 08:20:39;;;;;;;;;;;;;;;11.08;100.00;99491.81;5104494;28;20018;-93
2023/10/28 08:23:17;;;;;;;;;;;;;;;10.97;100.00;99497.41;5086585;28;19916;-93
2023/10/28 08:26:01;;;;;;;;;;;;;;;11.00;100.00;99494.69;5121227;28;19964;-93
2023/10/28 08:28:32;;;;;;;;;;;;;;;10.98;100.00;99501.75;5082437;28;19927;-92
2023/10/28 08:30:57;;;;;;;;;;;;;;;11.12;100.00;99497.78;5099483;28;20006;-93
2023/10/28 08:33:29;;;;;;;;;;;;;;;11.07;100.00;99506.66;5096019;28;20016;-93
2023/10/28 08:36:00;;;;;;;;;;;;;;;10.97;100.00;99505.28;5118272;28;19935;-93
2023/10/28 08:38:27;;;;;;;;;;;;;;;10.96;100.00;99508.84;5100088;28;19915;-93
2023/10/28 08:40:58;;;;;;;;;;;;;;;10.96;100.00;99510.56;5099893;28;20291;-91
2023/10/28 08:43:43;;;;;;;;;;;;;;;10.94;100.00;99515.03;5099905;28;20378;-92
2023/10/28 08:46:18;;;;;;;;;;;;;;;11.09;100.00;99524.97;5099854;28;19919;-92
2023/10/28 08:49:01;;;;;;;;;;;;;;;11.03;100.00;99517.31;5099906;28;19922;-93
2023/10/28 09:00:35;;;;;;;;;;;;;;;11.32;100.00;99526.78;5117490;28;19957;-93
2023/10/28 09:03:01;;;;;;;;;;;;;;;11.49;100.00;99538.44;5100204;28;19911;-94
2023/10/28 09:05:30;;;;;;;;;;;;;;;11.54;100.00;99539.97;5099401;28;19916;-93
2023/10/28 09:07:55;;;;;;;;;;;;;;;11.44;100.00;99539.44;5099072;28;19920;-94
2023/10/28 09:10:21;;;;;;;;;;;;;;;11.46;100.00;99535.91;5116341;28;19912;-93
2023/10/28 09:12:47;;;;;;;;;;;;;;;11.53;100.00;99540.88;5098729;28;19987;-94
2023/10/28 09:15:12;;;;;;;;;;;;;;;11.54;100.00;99545.22;5083859;28;20311;-93
2023/10/28 09:17:41;;;;;;;;;;;;;;;11.70;100.00;99548.13;5074900;28;19916;-94
2023/10/28 09:20:11;;;;;;;;;;;;;;;11.75;100.00;99547.94;5075616;28;20328;-93
2023/10/28 09:22:40;;;;;;;;;;;;;;;11.79;100.00;99544.31;5076070;28;19916;-93
2023/10/28 09:25:15;;;;;;;;;;;;;;;11.89;100.00;99545.66;5075412;28;19919;-94
2023/10/28 09:27:45;;;;;;;;;;;;;;;11.95;100.00;99549.84;5075063;28;19912;-94
2023/10/28 09:30:17;;;;;;;;;;;;;;;11.97;100.00;99542.81;5074925;28;20348;-94
2023/10/28 09:32:45;;;;;;;;;;;;;;;12.13;100.00;99543.06;5074964;28;19974;-93
2023/10/28 09:35:11;;;;;;;;;;;;;;;12.33;100.00;99542.28;5075549;28;20356;-94
2023/10/28 09:47:10;;;;;;;;;;;;;;;12.85;100.00;99534.03;5075663;28;19919;-93
2023/10/28 09:50:02;;;;;;;;;;;;;;;12.92;99.36;99542.53;5074299;28;19934;-94
2023/10/28 09:52:39;;;;;;;;;;;;;;;12.70;100.00;99539.91;5074421;28;19920;-93
2023/10/28 10:01:28;;;;;;;;;;;;;;;12.57;100.00;99545.69;5075442;28;19935;-93
2023/10/28 10:04:12;;;;;;;;;;;;;;;12.50;100.00;99536.34;5074259;28;20292;-93
2023/10/28 10:06:43;;;;;;;;;;;;;;;12.78;99.96;99529.94;5074242;28;19912;-93
2023/10/28 10:09:12;;;;;;;;;;;;;;;13.04;100.00;99539.34;5091149;28;19917;-94
2023/10/28 10:11:57;;;;;;;;;;;;;;;13.40;97.30;99535.22;5087291;28;19948;-93
2023/10/28 10:14:33;;;;;;;;;;;;;;;13.63;95.78;99536.81;5078591;28;19987;-94
2023/10/28 10:17:28;;;;;;;;;;;;;;;14.03;95.66;99532.34;5097766;28;19919;-93
2023/10/28 10:19:59;;;;;;;;;;;;;;;14.77;91.05;99542.00;5061144;28;19912;-94
2023/10/28 10:25:30;;;;;;;;;;;;;;;15.07;89.88;99547.50;5100731;28;19966;-93
2023/10/28 10:28:23;;;;;;;;;;;;;;;15.10;87.73;99554.44;5098089;28;19972;-94
2023/10/28 10:30:54;;;;;;;;;;;;;;;14.89;87.18;99551.91;5097523;28;20420;-94
2023/10/28 10:39:48;;;;;;;;;;;;;;;14.34;93.17;99552.84;5115086;28;19918;-94
2023/10/28 10:54:30;;;;;;;;;;;;;;;13.91;89.89;99544.31;5115193;28;19922;-93
2023/10/28 11:00:01;;;;;;;;;;;;;;;13.63;88.75;99542.97;5115225;28;19965;-94
2023/10/28 11:02:53;;;;;;;;;;;;;;;13.61;89.92;99557.09;5096863;28;20376;-93
2023/10/28 11:11:25;;;;;;;;;;;;;;;13.69;86.90;99544.44;5072179;28;20058;-96
2023/10/28 11:13:54;;;;;;;;;;;;;;;13.70;90.50;99546.16;5071879;28;20057;-94
2023/10/28 11:16:28;;;;;;;;;;;;;;;14.00;87.46;99540.41;5071769;28;19927;-94
2023/10/28 11:21:59;;;;;;;;;;;;;;;14.40;84.22;99530.59;5061347;28;20276;-95
2023/10/28 11:39:55;;;;;;;;;;;;;;;14.08;87.93;99540.91;5051887;28;19919;-94
2023/10/28 11:42:34;;;;;;;;;;;;;;;14.17;88.73;99542.25;5060397;28;19948;-93
2023/10/28 11:45:18;;;;;;;;;;;;;;;14.19;87.70;99543.88;5073080;28;20330;-94
2023/10/28 11:47:46;;;;;;;;;;;;;;;14.27;87.00;99545.31;5054541;28;20062;-94
2023/10/28 11:50:12;;;;;;;;;;;;;;;14.48;86.49;99533.72;5073000;28;19917;-93
2023/10/28 11:52:43;;;;;;;;;;;;;;;14.68;84.58;99548.59;5073953;28;20263;-92
2023/10/28 11:55:11;;;;;;;;;;;;;;;14.66;85.01;99541.69;5073103;28;19922;-93
2023/10/28 11:57:37;;;;;;;;;;;;;;;14.48;84.58;99539.00;5055255;28;19917;-92
2023/10/28 12:00:04;;;;;;;;;;;;;;;14.45;81.29;99544.41;5089116;28;20004;-92
2023/10/28 12:02:30;;;;;;;;;;;;;;;14.41;81.97;99541.97;5072176;28;19912;-92
2023/10/28 12:07:58;;;;;;;;;;;;;;;14.57;80.42;99558.78;5073106;28;20065;-92
2023/10/28 12:10:24;;;;;;;;;;;;;;;14.41;81.58;99555.16;5073224;28;20011;-92
2023/10/28 12:12:49;;;;;;;;;;;;;;;14.40;81.18;99549.06;5072189;28;20356;-92
2023/10/28 12:15:17;;;;;;;;;;;;;;;14.42;80.31;99557.72;5077295;28;19920;-92
2023/10/28 12:17:44;;;;;;;;;;;;;;;14.43;81.20;99548.91;5092587;28;20034;-92
2023/10/28 12:20:09;;;;;;;;;;;;;;;14.37;81.73;99557.09;5093128;28;19912;-92
2023/10/28 12:22:35;;;;;;;;;;;;;;;14.29;83.21;99564.50;5092086;28;19912;-92
2023/10/28 12:25:01;;;;;;;;;;;;;;;14.23;82.57;99560.38;5092587;28;19916;-92
2023/10/28 12:27:27;;;;;;;;;;;;;;;14.21;82.45;99562.25;5092433;28;19966;-92
2023/10/28 12:29:53;;;;;;;;;;;;;;;14.33;84.33;99560.81;5091995;28;20326;-92
2023/10/28 12:32:19;;;;;;;;;;;;;;;14.71;83.70;99555.47;5091736;28;19912;-92
2023/10/28 12:34:44;;;;;;;;;;;;;;;14.98;77.74;99562.94;5091749;28;19912;-92
2023/10/28 12:37:09;;;;;;;;;;;;;;;15.07;78.47;99563.34;5092159;28;19920;-91
2023/10/28 12:39:35;;;;;;;;;;;;;;;14.90;80.43;99572.09;5091843;28;19916;-92
2023/10/28 12:42:03;;;;;;;;;;;;;;;15.06;80.68;99561.63;5092159;28;19919;-93
2023/10/28 12:44:28;;;;;;;;;;;;;;;15.15;76.70;99560.31;5108630;28;19957;-92
2023/10/28 12:46:54;;;;;;;;;;;;;;;15.16;79.24;99566.44;5074710;28;19939;-92
2023/10/28 12:49:22;;;;;;;;;;;;;;;15.34;77.50;99564.63;5075375;28;19925;-94
2023/10/28 12:54:50;;;;;;;;;;;;;;;15.42;76.49;99567.72;5092936;28;20387;-93
2023/10/28 12:57:15;;;;;;;;;;;;;;;15.82;73.01;99570.94;5091600;28;19913;-92
2023/10/28 12:59:46;;;;;;;;;;;;;;;16.71;69.42;99585.44;5091398;28;19912;-92
2023/10/28 13:02:15;;;;;;;;;;;;;;;17.16;65.81;99577.59;5091450;28;20340;-92
2023/10/28 13:04:59;;;;;;;;;;;;;;;16.78;67.48;99581.50;5091726;28;19949;-93
2023/10/28 13:07:25;;;;;;;;;;;;;;;16.20;68.14;99581.19;5091586;28;19912;-93
2023/10/28 13:09:50;;;;;;;;;;;;;;;15.94;68.81;99585.25;5091495;28;20281;-92
2023/10/28 13:12:16;;;;;;;;;;;;;;;15.77;70.90;99573.81;5091290;28;19916;-92
2023/10/28 13:17:51;;;;;;;;;;;;;;;15.16;74.49;99566.44;5072629;28;19974;-91
2023/10/28 13:20:17;;;;;;;;;;;;;;;14.97;75.68;99566.50;5072614;28;19917;-91
2023/10/28 13:22:42;;;;;;;;;;;;;;;14.79;76.56;99569.16;5074796;28;19940;-91
2023/10/28 13:25:08;;;;;;;;;;;;;;;14.73;77.58;99562.38;5075103;28;20003;-91
2023/10/28 13:27:33;;;;;;;;;;;;;;;14.95;76.19;99560.47;5081521;28;19919;-91
2023/10/28 13:29:59;;;;;;;;;;;;;;;15.16;74.53;99558.53;5091655;28;19916;-91
2023/10/28 13:32:24;;;;;;;;;;;;;;;15.09;73.77;99559.78;5091063;28;19912;-91
2023/10/28 13:34:49;;;;;;;;;;;;;;;14.96;74.14;99555.13;5056511;28;19924;-91
2023/10/28 13:37:16;;;;;;;;;;;;;;;14.96;75.38;99551.63;5056125;28;19916;-91
2023/10/28 13:39:41;;;;;;;;;;;;;;;14.85;75.50;99552.16;5055668;28;19917;-91
2023/10/28 13:42:07;;;;;;;;;;;;;;;14.78;74.00;99558.66;5055930;28;20281;-91
2023/10/28 13:44:32;;;;;;;;;;;;;;;14.53;76.43;99554.59;5054574;28;20256;-91
2023/10/28 13:46:57;;;;;;;;;;;;;;;14.50;76.96;99557.38;5071101;28;19916;-91
2023/10/28 13:49:24;;;;;;;;;;;;;;;14.51;75.72;99548.50;5071145;28;19977;-91
2023/10/28 14:01:07;;;;;;;;;;;;;;;14.14;79.17;99560.84;5055132;28;19919;-90
2023/10/28 14:03:33;;;;;;;;;;;;;;;14.12;79.43;99560.91;5054141;28;19947;-90
2023/10/28 14:06:01;;;;;;;;;;;;;;;14.10;79.40;99562.75;5053880;28;19948;-91
2023/10/28 14:08:27;;;;;;;;;;;;;;;14.02;78.95;99568.38;5053790;28;19921;-91
2023/10/28 14:10:54;;;;;;;;;;;;;;;14.01;78.98;99557.91;5054359;28;20333;-90
2023/10/28 14:13:20;;;;;;;;;;;;;;;13.89;79.79;99561.09;5056836;28;19927;-90
2023/10/28 14:15:45;;;;;;;;;;;;;;;13.95;79.76;99556.44;5080282;28;20085;-91
2023/10/28 14:18:13;;;;;;;;;;;;;;;13.94;79.51;99559.13;5097445;28;19923;-91
2023/10/28 14:20:38;;;;;;;;;;;;;;;13.85;80.88;99561.25;5110515;28;19911;-90
2023/10/28 14:23:03;;;;;;;;;;;;;;;13.96;80.21;99557.25;5090437;28;19918;-91
2023/10/28 14:28:16;;;;;;;;;;;;;;;13.84;80.39;99567.44;5112275;28;19939;-91
2023/10/28 14:30:42;;;;;;;;;;;;;;;13.79;80.08;99558.03;5113669;28;19916;-90